createdAt,value
2018-03-18T00:00:26.897Z,40.10
2018-03-18T00:01:26.890Z,40.80
2018-03-18T00:02:26.883Z,37.00
2018-03-18T00:03:26.876Z,36.70
2018-03-18T00:04:26.869Z,37.40
2018-03-18T00:05:26.868Z,33.10
2018-03-18T00:06:26.854Z,38.50
2018-03-18T00:07:26.847Z,39.30
2018-03-18T00:08:26.864Z,38.20
2018-03-18T00:09:26.833Z,42.10
2018-03-18T00:10:26.828Z,40.60
2018-03-18T00:11:26.823Z,37.60
2018-03-18T00:12:26.814Z,38.50
2018-03-18T00:13:26.805Z,35.50
2018-03-18T00:14:26.799Z,37.40
2018-03-18T00:15:26.791Z,40.30
2018-03-18T00:16:26.786Z,36.30
2018-03-18T00:17:26.777Z,43.50
2018-03-18T00:18:26.772Z,39.90
2018-03-18T00:19:26.765Z,41.40
2018-03-18T00:20:26.757Z,40.70
2018-03-18T00:21:26.750Z,38.70
2018-03-18T00:22:26.744Z,34.90
2018-03-18T00:23:26.753Z,39.20
2018-03-18T00:24:26.731Z,37.40
2018-03-18T00:25:26.722Z,34.60
2018-03-18T00:26:26.716Z,39.20
2018-03-18T00:27:26.710Z,33.90
2018-03-18T00:28:26.702Z,35.40
2018-03-18T00:29:26.697Z,32.20
2018-03-18T00:30:26.695Z,34.10
2018-03-18T00:31:26.681Z,32.50
2018-03-18T00:32:26.673Z,28.90
2018-03-18T00:33:26.666Z,33.30
2018-03-18T00:34:26.661Z,34.90
2018-03-18T00:35:26.653Z,32.00
2018-03-18T00:36:26.646Z,31.90
2018-03-18T00:37:26.639Z,33.60
2018-03-18T00:38:26.633Z,34.70
2018-03-18T00:39:26.625Z,34.90
2018-03-18T00:40:26.619Z,35.60
2018-03-18T00:41:26.610Z,34.30
2018-03-18T00:42:26.604Z,35.30
2018-03-18T00:43:26.598Z,35.10
2018-03-18T00:44:26.595Z,39.30
2018-03-18T00:45:26.584Z,35.60
2018-03-18T00:46:26.598Z,37.00
2018-03-18T00:47:26.571Z,38.80
2018-03-18T00:48:26.564Z,40.00
2018-03-18T00:49:26.557Z,39.20
2018-03-18T00:50:26.549Z,36.80
2018-03-18T00:51:26.542Z,39.50
2018-03-18T00:52:26.540Z,38.40
2018-03-18T00:53:26.529Z,41.50
2018-03-18T00:54:26.522Z,38.30
2018-03-18T00:55:26.515Z,39.30
2018-03-18T00:56:26.529Z,40.00
2018-03-18T00:57:26.499Z,40.80
2018-03-18T00:58:26.494Z,37.80
2018-03-18T00:59:26.486Z,34.50
2018-03-18T01:00:26.480Z,39.30
2018-03-18T01:01:26.472Z,34.10
2018-03-18T01:02:26.465Z,35.90
2018-03-18T01:03:26.458Z,33.40
2018-03-18T01:04:26.455Z,36.60
2018-03-18T01:05:26.465Z,40.10
2018-03-18T01:06:26.436Z,39.80
2018-03-18T01:07:26.429Z,37.30
2018-03-18T01:08:26.422Z,35.60
2018-03-18T01:09:26.417Z,38.10
2018-03-18T01:10:26.408Z,40.00
2018-03-18T01:11:26.411Z,34.10
2018-03-18T01:12:26.394Z,37.30
2018-03-18T01:13:26.400Z,33.90
2018-03-18T01:14:26.379Z,38.40
2018-03-18T01:15:26.376Z,39.60
2018-03-18T01:16:26.365Z,34.00
2018-03-18T01:17:26.359Z,35.50
2018-03-18T01:18:26.350Z,37.50
2018-03-18T01:19:26.344Z,36.70
2018-03-18T01:20:26.337Z,36.60
2018-03-18T01:21:26.330Z,36.00
2018-03-18T01:22:26.323Z,34.30
2018-03-18T01:23:26.316Z,37.10
2018-03-18T01:24:26.309Z,35.90
2018-03-18T01:25:26.309Z,31.70
2018-03-18T01:26:26.294Z,34.40
2018-03-18T01:27:26.286Z,35.80
2018-03-18T01:28:26.280Z,35.10
2018-03-18T01:29:26.271Z,33.50
2018-03-18T01:30:26.272Z,32.40
2018-03-18T01:31:26.258Z,33.50
2018-03-18T01:32:26.253Z,32.40
2018-03-18T01:33:26.243Z,32.80
2018-03-18T01:34:26.235Z,32.80
2018-03-18T01:35:26.230Z,31.30
2018-03-18T01:36:26.222Z,32.90
2018-03-18T01:37:26.214Z,29.70
2018-03-18T01:38:26.208Z,30.40
2018-03-18T01:39:26.201Z,36.30
2018-03-18T01:40:26.194Z,30.20
2018-03-18T01:41:26.185Z,33.00
2018-03-18T01:42:26.178Z,35.70
2018-03-18T01:43:26.177Z,26.40
2018-03-18T01:44:26.171Z,35.60
2018-03-18T01:45:26.158Z,30.60
2018-03-18T01:46:26.151Z,32.00
2018-03-18T01:47:26.145Z,30.70
2018-03-18T01:48:26.137Z,32.30
2018-03-18T01:49:26.129Z,30.80
2018-03-18T01:50:26.138Z,32.00
2018-03-18T01:51:26.116Z,30.10
2018-03-18T01:52:26.109Z,30.00
2018-03-18T01:53:26.101Z,31.80
2018-03-18T01:54:26.095Z,28.40
2018-03-18T01:55:26.089Z,32.10
2018-03-18T01:56:26.080Z,31.40
2018-03-18T01:57:26.072Z,29.30
2018-03-18T01:58:26.066Z,32.40
2018-03-18T01:59:26.058Z,32.70
2018-03-18T02:00:26.052Z,30.60
2018-03-18T02:01:26.044Z,29.80
2018-03-18T02:02:26.040Z,31.90
2018-03-18T02:03:26.031Z,35.00
2018-03-18T02:04:26.023Z,33.30
2018-03-18T02:05:26.015Z,32.90
2018-03-18T02:06:26.006Z,34.90
2018-03-18T02:07:26.001Z,29.40
2018-03-18T02:08:25.995Z,32.50
2018-03-18T02:09:25.986Z,32.90
2018-03-18T02:10:25.980Z,33.40
2018-03-18T02:11:25.973Z,33.60
2018-03-18T02:12:25.966Z,34.40
2018-03-18T02:13:25.958Z,34.10
2018-03-18T02:14:25.950Z,35.80
2018-03-18T02:15:25.944Z,33.70
2018-03-18T02:16:25.936Z,33.30
2018-03-18T02:17:25.928Z,31.00
2018-03-18T02:18:25.921Z,31.70
2018-03-18T02:19:25.917Z,36.60
2018-03-18T02:20:25.907Z,33.50
2018-03-18T02:21:25.906Z,34.50
2018-03-18T02:22:25.892Z,31.90
2018-03-18T02:23:25.884Z,36.00
2018-03-18T02:24:25.878Z,36.60
2018-03-18T02:25:25.870Z,32.20
2018-03-18T02:26:25.863Z,34.60
2018-03-18T02:27:25.857Z,33.80
2018-03-18T02:28:25.849Z,35.60
2018-03-18T02:29:25.841Z,33.80
2018-03-18T02:30:25.836Z,32.60
2018-03-18T02:31:25.828Z,34.10
2018-03-18T02:32:25.820Z,34.20
2018-03-18T02:33:25.813Z,32.80
2018-03-18T02:34:25.806Z,32.90
2018-03-18T02:35:25.797Z,35.80
2018-03-18T02:36:25.791Z,31.50
2018-03-18T02:37:25.784Z,32.20
2018-03-18T02:38:25.777Z,37.60
2018-03-18T02:39:25.770Z,37.30
2018-03-18T02:40:25.763Z,34.80
2018-03-18T02:41:25.754Z,39.60
2018-03-18T02:42:25.748Z,38.10
2018-03-18T02:43:25.741Z,37.80
2018-03-18T02:44:25.740Z,36.40
2018-03-18T02:45:25.726Z,39.90
2018-03-18T02:46:25.719Z,37.50
2018-03-18T02:47:25.715Z,44.80
2018-03-18T02:48:25.706Z,35.20
2018-03-18T02:49:25.697Z,37.20
2018-03-18T02:50:25.689Z,35.60
2018-03-18T02:51:25.682Z,35.20
2018-03-18T02:52:25.676Z,32.10
2018-03-18T02:53:25.699Z,34.50
2018-03-18T02:54:25.661Z,36.40
2018-03-18T02:55:25.656Z,34.40
2018-03-18T02:56:25.647Z,31.80
2018-03-18T02:57:25.640Z,36.10
2018-03-18T02:58:25.631Z,36.90
2018-03-18T02:59:25.645Z,35.60
2018-03-18T03:00:25.618Z,39.40
2018-03-18T03:01:25.609Z,36.00
2018-03-18T03:02:25.604Z,36.20
2018-03-18T03:03:25.597Z,35.10
2018-03-18T03:04:25.600Z,41.80
2018-03-18T03:05:25.583Z,36.80
2018-03-18T03:06:25.575Z,34.60
2018-03-18T03:07:25.567Z,31.10
2018-03-18T03:08:25.561Z,33.10
2018-03-18T03:09:25.552Z,34.40
2018-03-18T03:10:25.546Z,32.50
2018-03-18T03:11:25.538Z,32.80
2018-03-18T03:12:25.542Z,31.20
2018-03-18T03:13:25.524Z,31.60
2018-03-18T03:14:25.596Z,36.00
2018-03-18T03:15:25.511Z,32.90
2018-03-18T03:16:25.504Z,32.00
2018-03-18T03:17:25.495Z,32.50
2018-03-18T03:18:25.488Z,34.10
2018-03-18T03:19:25.480Z,31.10
2018-03-18T03:20:25.473Z,34.30
2018-03-18T03:21:25.472Z,31.90
2018-03-18T03:22:25.459Z,35.30
2018-03-18T03:23:25.451Z,32.50
2018-03-18T03:24:25.543Z,33.10
2018-03-18T03:25:25.437Z,31.90
2018-03-18T03:26:25.430Z,31.50
2018-03-18T03:27:25.424Z,34.80
2018-03-18T03:28:25.416Z,35.90
2018-03-18T03:29:25.408Z,33.70
2018-03-18T03:30:25.403Z,32.80
2018-03-18T03:31:25.395Z,32.40
2018-03-18T03:32:25.395Z,37.70
2018-03-18T03:33:25.380Z,34.50
2018-03-18T03:34:25.374Z,33.50
2018-03-18T03:35:25.367Z,31.90
2018-03-18T03:36:25.359Z,32.20
2018-03-18T03:37:25.351Z,35.20
2018-03-18T03:38:25.344Z,38.70
2018-03-18T03:39:25.337Z,36.10
2018-03-18T03:40:25.330Z,32.40
2018-03-18T03:41:25.324Z,35.20
2018-03-18T03:42:25.314Z,35.00
2018-03-18T03:43:25.308Z,34.70
2018-03-18T03:44:25.305Z,38.20
2018-03-18T03:45:25.293Z,38.80
2018-03-18T03:46:25.286Z,37.70
2018-03-18T03:47:25.279Z,33.60
2018-03-18T03:48:25.273Z,36.50
2018-03-18T03:49:25.264Z,35.80
2018-03-18T03:50:25.258Z,36.40
2018-03-18T03:51:25.250Z,37.70
2018-03-18T03:52:25.244Z,35.50
2018-03-18T03:53:25.234Z,36.30
2018-03-18T03:54:25.237Z,33.50
2018-03-18T03:55:25.222Z,36.10
2018-03-18T03:56:25.215Z,34.10
2018-03-18T03:57:25.206Z,31.90
2018-03-18T03:58:25.198Z,34.30
2018-03-18T03:59:25.191Z,34.00
2018-03-18T04:00:25.185Z,34.60
2018-03-18T04:01:25.178Z,39.00
2018-03-18T04:02:25.174Z,38.00
2018-03-18T04:03:25.163Z,37.30
2018-03-18T04:04:25.155Z,34.90
2018-03-18T04:05:25.153Z,35.60
2018-03-18T04:06:25.143Z,36.60
2018-03-18T04:07:25.134Z,34.50
2018-03-18T04:08:25.128Z,38.20
2018-03-18T04:09:25.118Z,34.30
2018-03-18T04:10:25.111Z,34.00
2018-03-18T04:11:25.104Z,35.60
2018-03-18T04:12:25.098Z,36.10
2018-03-18T04:13:25.091Z,35.30
2018-03-18T04:14:25.085Z,32.80
2018-03-18T04:15:25.076Z,34.10
2018-03-18T04:16:25.069Z,33.80
2018-03-18T04:17:25.061Z,34.60
2018-03-18T04:18:25.054Z,34.00
2018-03-18T04:19:25.050Z,38.40
2018-03-18T04:20:25.040Z,38.20
2018-03-18T04:21:25.033Z,37.80
2018-03-18T04:22:25.024Z,37.60
2018-03-18T04:23:25.017Z,36.10
2018-03-18T04:24:25.011Z,33.70
2018-03-18T04:25:25.002Z,35.30
2018-03-18T04:26:24.999Z,35.50
2018-03-18T04:27:24.988Z,35.10
2018-03-18T04:28:24.983Z,34.50
2018-03-18T04:29:24.974Z,37.80
2018-03-18T04:30:24.966Z,32.80
2018-03-18T04:31:24.959Z,35.90
2018-03-18T04:32:24.953Z,33.60
2018-03-18T04:33:24.946Z,33.70
2018-03-18T04:34:24.949Z,33.10
2018-03-18T04:35:24.931Z,34.20
2018-03-18T04:36:24.925Z,34.40
2018-03-18T04:37:24.920Z,34.30
2018-03-18T04:38:24.908Z,36.60
2018-03-18T04:39:24.900Z,35.30
2018-03-18T04:40:24.894Z,33.10
2018-03-18T04:41:24.885Z,35.70
2018-03-18T04:42:24.879Z,33.60
2018-03-18T04:43:24.871Z,34.40
2018-03-18T04:44:24.864Z,33.80
2018-03-18T04:45:24.857Z,38.70
2018-03-18T04:46:24.850Z,32.60
2018-03-18T04:47:24.842Z,33.50
2018-03-18T04:48:24.835Z,34.60
2018-03-18T04:49:24.828Z,35.40
2018-03-18T04:50:24.821Z,32.20
2018-03-18T04:51:24.815Z,34.40
2018-03-18T04:52:24.805Z,33.80
2018-03-18T04:53:24.800Z,34.20
2018-03-18T04:54:24.791Z,35.50
2018-03-18T04:55:24.784Z,35.40
2018-03-18T04:56:24.777Z,33.20
2018-03-18T04:57:24.770Z,32.40
2018-03-18T04:58:24.762Z,32.80
2018-03-18T04:59:24.755Z,33.80
2018-03-18T05:00:24.747Z,34.60
2018-03-18T05:01:24.740Z,32.50
2018-03-18T05:02:24.733Z,32.00
2018-03-18T05:03:24.725Z,30.80
2018-03-18T05:04:24.718Z,32.50
2018-03-18T05:05:24.711Z,34.00
2018-03-18T05:06:24.705Z,35.00
2018-03-18T05:07:24.698Z,32.40
2018-03-18T05:08:24.689Z,34.60
2018-03-18T05:09:24.680Z,34.10
2018-03-18T05:10:24.674Z,32.30
2018-03-18T05:11:24.667Z,31.30
2018-03-18T05:12:24.661Z,33.30
2018-03-18T05:13:24.652Z,32.30
2018-03-18T05:14:24.647Z,32.20
2018-03-18T05:15:24.643Z,34.30
2018-03-18T05:16:24.637Z,33.20
2018-03-18T05:17:24.633Z,37.80
2018-03-18T05:18:24.615Z,31.20
2018-03-18T05:19:24.628Z,34.00
2018-03-18T05:20:24.601Z,33.70
2018-03-18T05:21:24.594Z,34.40
2018-03-18T05:22:24.588Z,34.20
2018-03-18T05:23:24.579Z,32.90
2018-03-18T05:24:24.572Z,33.00
2018-03-18T05:25:24.567Z,34.50
2018-03-18T05:26:24.558Z,36.20
2018-03-18T05:27:24.555Z,34.40
2018-03-18T05:28:24.544Z,35.00
2018-03-18T05:29:24.535Z,35.40
2018-03-18T05:30:24.528Z,35.50
2018-03-18T05:31:24.520Z,37.40
2018-03-18T05:32:24.513Z,34.10
2018-03-18T05:33:24.508Z,33.70
2018-03-18T05:34:24.500Z,34.50
2018-03-18T05:35:24.492Z,32.10
2018-03-18T05:36:24.485Z,31.80
2018-03-18T05:37:24.478Z,33.50
2018-03-18T05:38:24.471Z,34.50
2018-03-18T05:39:24.462Z,34.80
2018-03-18T05:40:24.455Z,31.80
2018-03-18T05:41:24.447Z,33.00
2018-03-18T05:42:24.441Z,33.30
2018-03-18T05:43:24.438Z,33.70
2018-03-18T05:44:24.426Z,35.90
2018-03-18T05:45:24.418Z,34.00
2018-03-18T05:46:24.411Z,32.50
2018-03-18T05:47:24.403Z,33.30
2018-03-18T05:48:24.398Z,33.70
2018-03-18T05:49:24.389Z,33.20
2018-03-18T05:50:24.382Z,33.10
2018-03-18T05:51:24.376Z,34.20
2018-03-18T05:52:24.368Z,35.10
2018-03-18T05:53:24.361Z,34.60
2018-03-18T05:54:24.353Z,36.40
2018-03-18T05:55:24.346Z,35.50
2018-03-18T05:56:24.383Z,35.50
2018-03-18T05:57:24.330Z,33.20
2018-03-18T05:58:24.324Z,34.80
2018-03-18T05:59:24.317Z,34.70
2018-03-18T06:00:24.310Z,34.20
2018-03-18T06:01:24.301Z,32.30
2018-03-18T06:02:24.295Z,36.50
2018-03-18T06:03:24.288Z,33.40
2018-03-18T06:04:24.281Z,32.70
2018-03-18T06:05:24.273Z,35.30
2018-03-18T06:06:24.266Z,34.80
2018-03-18T06:07:24.258Z,37.00
2018-03-18T06:08:24.254Z,33.40
2018-03-18T06:09:24.243Z,35.30
2018-03-18T06:10:24.240Z,35.20
2018-03-18T06:11:24.239Z,31.40
2018-03-18T06:12:24.222Z,33.10
2018-03-18T06:13:24.213Z,37.00
2018-03-18T06:14:24.207Z,33.10
2018-03-18T06:15:24.202Z,35.00
2018-03-18T06:16:24.193Z,32.60
2018-03-18T06:17:24.187Z,33.70
2018-03-18T06:18:24.178Z,35.00
2018-03-18T06:19:24.171Z,35.00
2018-03-18T06:20:24.164Z,34.60
2018-03-18T06:21:24.156Z,32.80
2018-03-18T06:22:24.150Z,35.50
2018-03-18T06:23:24.143Z,33.40
2018-03-18T06:24:24.136Z,31.50
2018-03-18T06:25:24.148Z,32.00
2018-03-18T06:26:24.121Z,33.50
2018-03-18T06:27:24.113Z,32.30
2018-03-18T06:28:24.108Z,33.80
2018-03-18T06:29:24.099Z,33.00
2018-03-18T06:30:24.091Z,31.70
2018-03-18T06:31:24.148Z,31.90
2018-03-18T06:32:24.078Z,31.10
2018-03-18T06:33:24.069Z,36.60
2018-03-18T06:34:24.063Z,30.70
2018-03-18T06:35:24.058Z,31.40
2018-03-18T06:36:24.050Z,33.10
2018-03-18T06:37:24.042Z,34.40
2018-03-18T06:38:24.036Z,33.30
2018-03-18T06:39:24.029Z,33.70
2018-03-18T06:40:24.022Z,31.10
2018-03-18T06:41:24.014Z,34.30
2018-03-18T06:42:24.015Z,32.20
2018-03-18T06:43:23.999Z,31.60
2018-03-18T06:44:23.993Z,31.60
2018-03-18T06:45:23.986Z,30.50
2018-03-18T06:46:23.977Z,29.70
2018-03-18T06:47:23.971Z,32.80
2018-03-18T06:48:23.965Z,35.70
2018-03-18T06:49:23.958Z,37.40
2018-03-18T06:50:23.951Z,32.50
2018-03-18T06:51:23.946Z,31.10
2018-03-18T06:52:23.936Z,33.90
2018-03-18T06:53:23.929Z,34.00
2018-03-18T06:54:23.922Z,31.90
2018-03-18T06:55:23.915Z,33.00
2018-03-18T06:56:23.916Z,30.60
2018-03-18T06:57:23.900Z,35.80
2018-03-18T06:58:23.894Z,33.60
2018-03-18T06:59:23.888Z,35.20
2018-03-18T07:00:23.881Z,32.90
2018-03-18T07:01:23.873Z,31.10
2018-03-18T07:02:23.866Z,37.10
2018-03-18T07:03:23.865Z,32.30
2018-03-18T07:04:23.856Z,31.40
2018-03-18T07:05:23.844Z,30.80
2018-03-18T07:06:23.837Z,33.80
2018-03-18T07:07:23.886Z,35.10
2018-03-18T07:08:23.824Z,35.80
2018-03-18T07:09:23.815Z,37.70
2018-03-18T07:10:23.808Z,35.50
2018-03-18T07:11:23.802Z,32.00
2018-03-18T07:12:23.795Z,33.20
2018-03-18T07:13:23.788Z,32.10
2018-03-18T07:14:23.780Z,33.30
2018-03-18T07:15:23.773Z,34.70
2018-03-18T07:16:23.767Z,33.50
2018-03-18T07:17:23.759Z,32.80
2018-03-18T07:18:23.753Z,34.10
2018-03-18T07:19:23.753Z,31.90
2018-03-18T07:20:23.745Z,31.80
2018-03-18T07:21:23.732Z,34.80
2018-03-18T07:22:23.725Z,33.80
2018-03-18T07:23:23.717Z,34.30
2018-03-18T07:24:23.712Z,31.70
2018-03-18T07:25:23.704Z,33.10
2018-03-18T07:26:23.696Z,35.10
2018-03-18T07:27:23.690Z,33.90
2018-03-18T07:28:23.694Z,32.30
2018-03-18T07:29:23.675Z,34.30
2018-03-18T07:30:23.669Z,33.30
2018-03-18T07:31:23.662Z,34.40
2018-03-18T07:32:23.656Z,31.00
2018-03-18T07:33:23.647Z,34.80
2018-03-18T07:34:23.641Z,32.80
2018-03-18T07:35:23.635Z,34.40
2018-03-18T07:36:23.630Z,34.50
2018-03-18T07:37:23.620Z,32.20
2018-03-18T07:38:23.615Z,33.50
2018-03-18T07:39:23.652Z,34.00
2018-03-18T07:40:23.600Z,34.90
2018-03-18T07:41:23.892Z,33.20
2018-03-18T07:42:23.586Z,35.40
2018-03-18T07:43:23.578Z,33.20
2018-03-18T07:44:23.572Z,35.10
2018-03-18T07:45:23.564Z,32.60
2018-03-18T07:46:23.556Z,34.00
2018-03-18T07:47:23.625Z,30.90
2018-03-18T07:48:23.544Z,34.10
2018-03-18T07:49:23.537Z,30.90
2018-03-18T07:50:23.535Z,33.60
2018-03-18T07:51:23.522Z,33.90
2018-03-18T07:52:23.515Z,29.80
2018-03-18T07:53:23.529Z,33.30
2018-03-18T07:54:23.501Z,34.20
2018-03-18T07:55:23.494Z,30.20
2018-03-18T07:56:23.488Z,35.70
2018-03-18T07:57:23.480Z,33.20
2018-03-18T07:58:23.474Z,33.80
2018-03-18T07:59:23.467Z,31.90
2018-03-18T08:00:23.461Z,34.60
2018-03-18T08:01:23.454Z,36.60
2018-03-18T08:02:23.447Z,35.20
2018-03-18T08:03:23.444Z,32.70
2018-03-18T08:04:23.433Z,37.30
2018-03-18T08:05:23.425Z,35.70
2018-03-18T08:06:23.418Z,38.30
2018-03-18T08:07:23.412Z,34.40
2018-03-18T08:08:23.406Z,36.40
2018-03-18T08:09:23.397Z,34.10
2018-03-18T08:10:23.390Z,35.50
2018-03-18T08:11:23.384Z,35.30
2018-03-18T08:12:23.377Z,34.40
2018-03-18T08:13:23.370Z,36.10
2018-03-18T08:14:23.363Z,33.60
2018-03-18T08:15:23.356Z,33.60
2018-03-18T08:16:23.350Z,35.40
2018-03-18T08:17:23.342Z,34.90
2018-03-18T08:18:23.335Z,38.70
2018-03-18T08:19:23.329Z,35.90
2018-03-18T08:20:23.322Z,34.90
2018-03-18T08:21:23.315Z,38.20
2018-03-18T08:22:23.310Z,35.40
2018-03-18T08:23:23.302Z,38.20
2018-03-18T08:24:23.296Z,39.00
2018-03-18T08:25:23.289Z,37.40
2018-03-18T08:26:23.282Z,38.40
2018-03-18T08:27:23.274Z,36.20
2018-03-18T08:28:23.269Z,35.00
2018-03-18T08:29:23.262Z,37.90
2018-03-18T08:30:23.256Z,39.60
2018-03-18T08:31:23.247Z,36.20
2018-03-18T08:32:23.243Z,38.90
2018-03-18T08:33:23.234Z,38.10
2018-03-18T08:34:23.226Z,40.60
2018-03-18T08:35:23.220Z,35.70
2018-03-18T08:36:23.213Z,38.20
2018-03-18T08:37:23.206Z,38.10
2018-03-18T08:38:23.199Z,37.00
2018-03-18T08:39:23.195Z,35.90
2018-03-18T08:40:23.190Z,34.80
2018-03-18T08:41:23.191Z,39.70
2018-03-18T08:42:23.172Z,40.50
2018-03-18T08:43:23.166Z,38.70
2018-03-18T08:44:23.166Z,41.10
2018-03-18T08:45:23.152Z,40.00
2018-03-18T08:46:23.146Z,42.10
2018-03-18T08:47:23.138Z,38.20
2018-03-18T08:48:23.132Z,38.40
2018-03-18T08:49:23.125Z,39.60
2018-03-18T08:50:23.120Z,40.30
2018-03-18T08:51:23.112Z,40.10
2018-03-18T08:52:23.138Z,36.80
2018-03-18T08:53:23.100Z,35.80
2018-03-18T08:54:23.091Z,36.90
2018-03-18T08:55:23.085Z,40.40
2018-03-18T08:56:23.079Z,38.80
2018-03-18T08:57:23.071Z,38.80
2018-03-18T08:58:23.067Z,36.60
2018-03-18T08:59:23.059Z,40.60
2018-03-18T09:00:23.052Z,40.40
2018-03-18T09:01:23.045Z,40.20
2018-03-18T09:02:23.038Z,42.20
2018-03-18T09:03:23.033Z,38.10
2018-03-18T09:04:23.026Z,39.20
2018-03-18T09:05:23.019Z,40.70
2018-03-18T09:06:23.012Z,38.00
2018-03-18T09:07:23.009Z,39.00
2018-03-18T09:08:23.004Z,44.60
2018-03-18T09:09:22.993Z,39.00
2018-03-18T09:10:22.987Z,39.90
2018-03-18T09:11:22.980Z,44.20
2018-03-18T09:12:22.974Z,39.20
2018-03-18T09:13:22.968Z,39.50
2018-03-18T09:14:22.960Z,38.90
2018-03-18T09:15:22.954Z,40.30
2018-03-18T09:16:22.949Z,43.40
2018-03-18T09:17:22.941Z,41.50
2018-03-18T09:18:22.935Z,40.10
2018-03-18T09:19:22.928Z,42.70
2018-03-18T09:20:22.922Z,40.20
2018-03-18T09:21:22.915Z,44.90
2018-03-18T09:22:22.908Z,44.00
2018-03-18T09:23:22.902Z,39.10
2018-03-18T09:24:22.901Z,42.10
2018-03-18T09:25:22.889Z,38.90
2018-03-18T09:26:22.884Z,37.40
2018-03-18T09:27:22.876Z,38.50
2018-03-18T09:28:22.870Z,39.30
2018-03-18T09:29:22.863Z,42.10
2018-03-18T09:30:22.857Z,42.00
2018-03-18T09:31:22.850Z,45.20
2018-03-18T09:32:22.850Z,40.10
2018-03-18T09:33:22.837Z,38.20
2018-03-18T09:34:22.831Z,38.00
2018-03-18T09:35:22.824Z,38.20
2018-03-18T09:36:22.819Z,44.10
2018-03-18T09:37:22.815Z,44.80
2018-03-18T09:38:22.805Z,40.50
2018-03-18T09:39:22.798Z,38.20
2018-03-18T09:40:22.793Z,43.60
2018-03-18T09:41:22.786Z,35.30
2018-03-18T09:42:22.779Z,39.30
2018-03-18T09:43:22.773Z,39.50
2018-03-18T09:44:22.767Z,37.00
2018-03-18T09:45:22.760Z,42.90
2018-03-18T09:46:22.753Z,41.70
2018-03-18T09:47:22.748Z,38.70
2018-03-18T09:48:22.741Z,42.10
2018-03-18T09:49:22.738Z,40.30
2018-03-18T09:50:22.728Z,40.30
2018-03-18T09:51:22.723Z,37.70
2018-03-18T09:52:22.716Z,42.70
2018-03-18T09:53:22.709Z,39.80
2018-03-18T09:54:23.005Z,38.60
2018-03-18T09:55:22.697Z,37.70
2018-03-18T09:56:22.744Z,36.60
2018-03-18T09:57:22.684Z,42.20
2018-03-18T09:58:22.677Z,40.40
2018-03-18T09:59:22.671Z,41.10
2018-03-18T10:00:22.666Z,36.90
2018-03-18T10:01:22.660Z,39.20
2018-03-18T10:02:22.653Z,42.80
2018-03-18T10:03:22.646Z,38.00
2018-03-18T10:04:22.641Z,39.10
2018-03-18T10:05:22.634Z,41.90
2018-03-18T10:06:22.627Z,38.40
2018-03-18T10:07:22.620Z,38.50
2018-03-18T10:08:22.615Z,38.80
2018-03-18T10:09:22.608Z,40.50
2018-03-18T10:10:22.601Z,42.10
2018-03-18T10:11:22.595Z,37.40
2018-03-18T10:12:22.588Z,37.10
2018-03-18T10:13:22.582Z,41.10
2018-03-18T10:14:22.575Z,38.60
2018-03-18T10:15:22.856Z,40.10
2018-03-18T10:16:22.568Z,41.50
2018-03-18T10:17:22.555Z,38.30
2018-03-18T10:18:22.571Z,37.10
2018-03-18T10:19:22.544Z,38.40
2018-03-18T10:20:22.572Z,41.40
2018-03-18T10:21:22.529Z,42.70
2018-03-18T10:22:22.523Z,37.90
2018-03-18T10:23:22.516Z,37.20
2018-03-18T10:24:22.510Z,40.30
2018-03-18T10:25:22.504Z,39.00
2018-03-18T10:26:22.496Z,38.70
2018-03-18T10:27:22.491Z,41.70
2018-03-18T10:28:22.485Z,35.10
2018-03-18T10:29:22.480Z,36.70
2018-03-18T10:30:22.471Z,38.40
2018-03-18T10:31:22.465Z,40.80
2018-03-18T10:32:22.459Z,37.50
2018-03-18T10:33:22.451Z,38.80
2018-03-18T10:34:22.445Z,34.20
2018-03-18T10:35:22.438Z,36.60
2018-03-18T10:36:22.436Z,39.40
2018-03-18T10:37:22.426Z,37.00
2018-03-18T10:38:22.419Z,40.50
2018-03-18T10:39:22.412Z,38.10
2018-03-18T10:40:22.407Z,35.20
2018-03-18T10:41:22.400Z,36.90
2018-03-18T10:42:22.397Z,37.10
2018-03-18T10:43:22.388Z,37.20
2018-03-18T10:44:22.382Z,45.60
2018-03-18T10:45:22.374Z,41.10
2018-03-18T10:46:22.368Z,44.10
2018-03-18T10:47:22.362Z,42.10
2018-03-18T10:48:22.355Z,38.60
2018-03-18T10:49:22.348Z,40.80
2018-03-18T10:50:22.342Z,42.30
2018-03-18T10:51:22.336Z,39.50
2018-03-18T10:52:22.330Z,38.80
2018-03-18T10:53:22.323Z,37.30
2018-03-18T10:54:22.316Z,38.00
2018-03-18T10:55:22.312Z,36.60
2018-03-18T10:56:22.305Z,40.60
2018-03-18T10:57:22.297Z,43.00
2018-03-18T10:58:22.291Z,41.80
2018-03-18T10:59:22.305Z,39.40
2018-03-18T11:00:22.279Z,39.50
2018-03-18T11:01:22.272Z,38.30
2018-03-18T11:02:22.267Z,42.20
2018-03-18T11:03:22.258Z,39.50
2018-03-18T11:04:22.254Z,42.80
2018-03-18T11:05:22.247Z,38.30
2018-03-18T11:06:22.239Z,39.70
2018-03-18T11:07:22.234Z,38.40
2018-03-18T11:08:22.227Z,36.50
2018-03-18T11:09:22.221Z,35.70
2018-03-18T11:10:22.215Z,36.00
2018-03-18T11:11:22.208Z,38.20
2018-03-18T11:12:22.204Z,34.20
2018-03-18T11:13:22.196Z,38.20
2018-03-18T11:14:22.193Z,36.40
2018-03-18T11:15:22.183Z,37.30
2018-03-18T11:16:22.180Z,32.50
2018-03-18T11:17:22.172Z,36.60
2018-03-18T11:18:22.165Z,37.40
2018-03-18T11:19:22.158Z,37.90
2018-03-18T11:20:22.157Z,38.60
2018-03-18T11:21:22.146Z,38.40
2018-03-18T11:22:22.410Z,40.30
2018-03-18T11:23:22.135Z,38.20
2018-03-18T11:24:22.128Z,33.70
2018-03-18T11:25:22.123Z,35.60
2018-03-18T11:26:22.115Z,38.80
2018-03-18T11:27:22.109Z,45.00
2018-03-18T11:28:22.104Z,40.00
2018-03-18T11:29:22.097Z,36.90
2018-03-18T11:30:22.095Z,34.70
2018-03-18T11:31:22.086Z,38.00
2018-03-18T11:32:22.080Z,35.00
2018-03-18T11:33:22.072Z,35.00
2018-03-18T11:34:22.067Z,35.10
2018-03-18T11:35:22.064Z,38.40
2018-03-18T11:36:22.055Z,37.70
2018-03-18T11:37:22.046Z,35.80
2018-03-18T11:38:22.042Z,38.70
2018-03-18T11:39:22.035Z,36.40
2018-03-18T11:40:22.028Z,33.70
2018-03-18T11:41:22.022Z,36.10
2018-03-18T11:42:22.016Z,39.50
2018-03-18T11:43:22.010Z,31.90
2018-03-18T11:44:22.005Z,34.40
2018-03-18T11:45:21.999Z,33.80
2018-03-18T11:46:21.992Z,31.90
2018-03-18T11:47:21.985Z,35.10
2018-03-18T11:48:21.981Z,35.70
2018-03-18T11:49:21.975Z,34.90
2018-03-18T11:50:21.969Z,33.00
2018-03-18T11:51:21.961Z,36.40
2018-03-18T11:52:21.956Z,36.60
2018-03-18T11:53:21.955Z,39.50
2018-03-18T11:54:21.985Z,36.10
2018-03-18T11:55:21.937Z,34.40
2018-03-18T11:56:21.931Z,39.20
2018-03-18T11:57:21.925Z,34.30
2018-03-18T11:58:21.917Z,35.30
2018-03-18T11:59:21.911Z,34.80
2018-03-18T12:00:21.907Z,33.70
2018-03-18T12:01:21.899Z,39.40
2018-03-18T12:02:21.892Z,36.20
2018-03-18T12:03:21.887Z,34.30
2018-03-18T12:04:21.881Z,35.40
2018-03-18T12:05:21.874Z,35.50
2018-03-18T12:06:21.867Z,38.30
2018-03-18T12:07:21.861Z,39.70
2018-03-18T12:08:21.855Z,33.50
2018-03-18T12:09:21.848Z,37.00
2018-03-18T12:10:21.849Z,36.00
2018-03-18T12:11:21.836Z,36.30
2018-03-18T12:12:21.831Z,36.80
2018-03-18T12:13:21.823Z,37.40
2018-03-18T12:14:21.817Z,39.20
2018-03-18T12:15:21.810Z,39.90
2018-03-18T12:16:21.805Z,31.80
2018-03-18T12:17:21.796Z,36.10
2018-03-18T12:18:21.791Z,35.20
2018-03-18T12:19:21.786Z,39.30
2018-03-18T12:20:21.778Z,39.20
2018-03-18T12:21:21.771Z,37.90
2018-03-18T12:22:21.765Z,34.40
2018-03-18T12:23:21.759Z,40.70
2018-03-18T12:24:21.753Z,38.90
2018-03-18T12:25:21.746Z,39.80
2018-03-18T12:26:21.746Z,33.00
2018-03-18T12:27:21.734Z,36.20
2018-03-18T12:28:21.728Z,41.40
2018-03-18T12:29:21.721Z,36.50
2018-03-18T12:30:21.715Z,37.20
2018-03-18T12:31:21.710Z,35.80
2018-03-18T12:32:21.702Z,37.60
2018-03-18T12:33:21.696Z,31.40
2018-03-18T12:34:21.689Z,39.00
2018-03-18T12:35:21.683Z,33.40
2018-03-18T12:36:21.678Z,36.10
2018-03-18T12:37:21.671Z,34.30
2018-03-18T12:38:21.664Z,36.10
2018-03-18T12:39:21.658Z,36.80
2018-03-18T12:40:21.652Z,35.40
2018-03-18T12:41:21.648Z,35.40
2018-03-18T12:42:21.639Z,38.20
2018-03-18T12:43:21.636Z,33.80
2018-03-18T12:44:21.627Z,37.90
2018-03-18T12:45:21.620Z,35.20
2018-03-18T12:46:21.614Z,35.00
2018-03-18T12:47:21.607Z,37.80
2018-03-18T12:48:21.601Z,37.10
2018-03-18T12:49:21.594Z,36.00
2018-03-18T12:50:21.587Z,37.20
2018-03-18T12:51:21.585Z,38.40
2018-03-18T12:52:21.576Z,38.20